sensor_id;sensor_type;location;lat;lon;timestamp;P1;durP1;ratioP1;P2;durP2;ratioP2
34573;SDS011;20809;49.594;8.734;2022-07-29T00:00:21;2.42;;;1.52;;
34573;SDS011;20809;49.594;8.734;2022-07-29T00:03:22;6.07;;;1.45;;
34573;SDS011;20809;49.594;8.734;2022-07-29T00:06:23;3.92;;;1.70;;
34573;SDS011;20809;49.594;8.734;2022-07-29T00:09:23;2.17;;;1.55;;
34573;SDS011;20809;49.594;8.734;2022-07-29T00:12:24;1.67;;;1.45;;
34573;SDS011;20809;49.594;8.734;2022-07-29T00:18:26;2.53;;;1.40;;
34573;SDS011;20809;49.594;8.734;2022-07-29T00:21:27;2.83;;;1.33;;
34573;SDS011;20809;49.594;8.734;2022-07-29T00:24:27;3.13;;;1.48;;
34573;SDS011;20809;49.594;8.734;2022-07-29T00:27:28;1.98;;;1.00;;
34573;SDS011;20809;49.594;8.734;2022-07-29T00:30:29;1.48;;;1.30;;
34573;SDS011;20809;49.594;8.734;2022-07-29T00:33:30;2.80;;;1.52;;
34573;SDS011;20809;49.594;8.734;2022-07-29T00:36:31;2.38;;;1.50;;
34573;SDS011;20809;49.594;8.734;2022-07-29T00:42:45;2.40;;;1.37;;
34573;SDS011;20809;49.594;8.734;2022-07-29T00:45:48;1.52;;;1.35;;
34573;SDS011;20809;49.594;8.734;2022-07-29T00:48:49;4.85;;;1.75;;
34573;SDS011;20809;49.594;8.734;2022-07-29T00:51:50;2.35;;;1.38;;
34573;SDS011;20809;49.594;8.734;2022-07-29T00:54:51;2.00;;;1.60;;
34573;SDS011;20809;49.594;8.734;2022-07-29T00:59:16;2.63;;;1.58;;
34573;SDS011;20809;49.594;8.734;2022-07-29T01:02:17;4.65;;;2.15;;
34573;SDS011;20809;49.594;8.734;2022-07-29T01:05:21;1.70;;;1.50;;
34573;SDS011;20809;49.594;8.734;2022-07-29T01:08:27;3.55;;;1.23;;
34573;SDS011;20809;49.594;8.734;2022-07-29T01:11:27;4.22;;;1.52;;
34573;SDS011;20809;49.594;8.734;2022-07-29T01:14:28;2.15;;;1.73;;
34573;SDS011;20809;49.594;8.734;2022-07-29T01:24:49;1.63;;;1.42;;
34573;SDS011;20809;49.594;8.734;2022-07-29T01:30:59;5.35;;;1.67;;
34573;SDS011;20809;49.594;8.734;2022-07-29T01:34:04;2.80;;;1.58;;
34573;SDS011;20809;49.594;8.734;2022-07-29T01:40:27;1.85;;;1.67;;
34573;SDS011;20809;49.594;8.734;2022-07-29T01:43:42;2.00;;;1.80;;
34573;SDS011;20809;49.594;8.734;2022-07-29T01:46:50;3.10;;;1.80;;
34573;SDS011;20809;49.594;8.734;2022-07-29T01:49:56;1.83;;;1.60;;
34573;SDS011;20809;49.594;8.734;2022-07-29T01:53:02;3.10;;;1.67;;
34573;SDS011;20809;49.594;8.734;2022-07-29T01:56:11;2.80;;;2.05;;
34573;SDS011;20809;49.594;8.734;2022-07-29T01:59:16;3.40;;;1.50;;
34573;SDS011;20809;49.594;8.734;2022-07-29T02:02:18;1.75;;;1.60;;
34573;SDS011;20809;49.594;8.734;2022-07-29T02:05:23;3.78;;;1.50;;
34573;SDS011;20809;49.594;8.734;2022-07-29T02:08:26;2.17;;;1.85;;
34573;SDS011;20809;49.594;8.734;2022-07-29T02:11:29;2.65;;;1.65;;
34573;SDS011;20809;49.594;8.734;2022-07-29T02:14:36;2.50;;;1.70;;
34573;SDS011;20809;49.594;8.734;2022-07-29T02:17:44;1.73;;;1.60;;
34573;SDS011;20809;49.594;8.734;2022-07-29T02:20:55;2.95;;;1.70;;
34573;SDS011;20809;49.594;8.734;2022-07-29T02:23:59;1.80;;;1.60;;
34573;SDS011;20809;49.594;8.734;2022-07-29T02:27:01;2.28;;;1.55;;
34573;SDS011;20809;49.594;8.734;2022-07-29T02:30:04;3.80;;;1.42;;
34573;SDS011;20809;49.594;8.734;2022-07-29T02:33:18;2.72;;;1.73;;
34573;SDS011;20809;49.594;8.734;2022-07-29T02:36:22;6.43;;;1.67;;
34573;SDS011;20809;49.594;8.734;2022-07-29T02:39:24;3.17;;;2.15;;
34573;SDS011;20809;49.594;8.734;2022-07-29T02:42:29;1.75;;;1.58;;
34573;SDS011;20809;49.594;8.734;2022-07-29T02:45:32;2.42;;;1.40;;
34573;SDS011;20809;49.594;8.734;2022-07-29T02:48:36;5.60;;;1.80;;
34573;SDS011;20809;49.594;8.734;2022-07-29T02:51:42;2.40;;;1.40;;
34573;SDS011;20809;49.594;8.734;2022-07-29T02:54:56;1.90;;;1.50;;
34573;SDS011;20809;49.594;8.734;2022-07-29T03:01:30;5.03;;;1.75;;
34573;SDS011;20809;49.594;8.734;2022-07-29T03:04:33;1.60;;;1.20;;
34573;SDS011;20809;49.594;8.734;2022-07-29T03:07:34;2.35;;;1.70;;
34573;SDS011;20809;49.594;8.734;2022-07-29T03:10:37;2.88;;;1.98;;
34573;SDS011;20809;49.594;8.734;2022-07-29T03:13:47;8.65;;;2.78;;
34573;SDS011;20809;49.594;8.734;2022-07-29T03:19:50;1.70;;;1.60;;
34573;SDS011;20809;49.594;8.734;2022-07-29T03:22:51;2.65;;;1.90;;
34573;SDS011;20809;49.594;8.734;2022-07-29T03:25:52;3.17;;;1.50;;
34573;SDS011;20809;49.594;8.734;2022-07-29T03:31:58;3.42;;;1.67;;
34573;SDS011;20809;49.594;8.734;2022-07-29T03:35:07;2.15;;;1.27;;
34573;SDS011;20809;49.594;8.734;2022-07-29T03:38:12;2.75;;;1.60;;
34573;SDS011;20809;49.594;8.734;2022-07-29T03:41:15;2.80;;;1.70;;
34573;SDS011;20809;49.594;8.734;2022-07-29T03:44:18;2.47;;;1.40;;
34573;SDS011;20809;49.594;8.734;2022-07-29T03:47:22;1.95;;;1.75;;
34573;SDS011;20809;49.594;8.734;2022-07-29T03:50:27;1.75;;;1.35;;
34573;SDS011;20809;49.594;8.734;2022-07-29T03:53:35;4.32;;;1.90;;
34573;SDS011;20809;49.594;8.734;2022-07-29T03:56:42;2.17;;;1.42;;
34573;SDS011;20809;49.594;8.734;2022-07-29T03:59:47;4.63;;;1.75;;
34573;SDS011;20809;49.594;8.734;2022-07-29T04:02:52;3.78;;;1.67;;
34573;SDS011;20809;49.594;8.734;2022-07-29T04:09:19;4.57;;;1.67;;
34573;SDS011;20809;49.594;8.734;2022-07-29T04:12:25;3.33;;;1.67;;
34573;SDS011;20809;49.594;8.734;2022-07-29T04:15:29;2.35;;;1.60;;
34573;SDS011;20809;49.594;8.734;2022-07-29T04:18:30;2.08;;;1.75;;
34573;SDS011;20809;49.594;8.734;2022-07-29T04:21:32;3.08;;;1.80;;
34573;SDS011;20809;49.594;8.734;2022-07-29T04:24:40;3.50;;;1.98;;
34573;SDS011;20809;49.594;8.734;2022-07-29T04:27:41;4.28;;;1.58;;
34573;SDS011;20809;49.594;8.734;2022-07-29T04:31:00;2.38;;;1.77;;
34573;SDS011;20809;49.594;8.734;2022-07-29T04:34:04;3.70;;;1.73;;
34573;SDS011;20809;49.594;8.734;2022-07-29T04:37:15;2.60;;;1.58;;
34573;SDS011;20809;49.594;8.734;2022-07-29T04:40:16;2.45;;;1.67;;
34573;SDS011;20809;49.594;8.734;2022-07-29T04:43:19;2.58;;;1.38;;
34573;SDS011;20809;49.594;8.734;2022-07-29T04:46:20;2.13;;;1.50;;
34573;SDS011;20809;49.594;8.734;2022-07-29T04:49:24;2.97;;;1.42;;
34573;SDS011;20809;49.594;8.734;2022-07-29T04:52:26;4.03;;;1.65;;
34573;SDS011;20809;49.594;8.734;2022-07-29T04:55:39;2.90;;;1.80;;
34573;SDS011;20809;49.594;8.734;2022-07-29T04:58:40;2.55;;;1.50;;
34573;SDS011;20809;49.594;8.734;2022-07-29T05:01:40;2.00;;;1.90;;
34573;SDS011;20809;49.594;8.734;2022-07-29T05:04:41;2.67;;;1.40;;
34573;SDS011;20809;49.594;8.734;2022-07-29T05:07:45;2.35;;;1.75;;
34573;SDS011;20809;49.594;8.734;2022-07-29T05:10:45;3.28;;;1.85;;
34573;SDS011;20809;49.594;8.734;2022-07-29T05:13:47;2.10;;;1.92;;
34573;SDS011;20809;49.594;8.734;2022-07-29T05:16:47;2.63;;;2.28;;
34573;SDS011;20809;49.594;8.734;2022-07-29T05:19:51;3.42;;;2.47;;
34573;SDS011;20809;49.594;8.734;2022-07-29T05:22:52;2.67;;;2.38;;
34573;SDS011;20809;49.594;8.734;2022-07-29T05:25:53;5.00;;;3.40;;
34573;SDS011;20809;49.594;8.734;2022-07-29T05:28:56;3.95;;;3.53;;
34573;SDS011;20809;49.594;8.734;2022-07-29T05:32:00;2.85;;;2.50;;
34573;SDS011;20809;49.594;8.734;2022-07-29T05:35:01;5.20;;;2.90;;
34573;SDS011;20809;49.594;8.734;2022-07-29T05:38:02;3.10;;;2.63;;
34573;SDS011;20809;49.594;8.734;2022-07-29T05:41:04;4.80;;;2.40;;
34573;SDS011;20809;49.594;8.734;2022-07-29T05:44:07;2.13;;;1.88;;
34573;SDS011;20809;49.594;8.734;2022-07-29T05:47:13;3.80;;;2.17;;
34573;SDS011;20809;49.594;8.734;2022-07-29T05:50:13;3.08;;;1.80;;
34573;SDS011;20809;49.594;8.734;2022-07-29T05:53:14;5.57;;;2.03;;
34573;SDS011;20809;49.594;8.734;2022-07-29T05:56:16;3.50;;;1.80;;
34573;SDS011;20809;49.594;8.734;2022-07-29T05:59:17;1.67;;;1.50;;
34573;SDS011;20809;49.594;8.734;2022-07-29T06:02:18;1.77;;;1.30;;
34573;SDS011;20809;49.594;8.734;2022-07-29T06:05:19;3.55;;;2.08;;
34573;SDS011;20809;49.594;8.734;2022-07-29T06:08:20;3.97;;;1.85;;
34573;SDS011;20809;49.594;8.734;2022-07-29T06:11:20;3.97;;;1.73;;
34573;SDS011;20809;49.594;8.734;2022-07-29T06:14:21;1.88;;;1.42;;
34573;SDS011;20809;49.594;8.734;2022-07-29T06:20:36;4.10;;;2.00;;
34573;SDS011;20809;49.594;8.734;2022-07-29T06:23:37;3.22;;;1.70;;
34573;SDS011;20809;49.594;8.734;2022-07-29T06:26:38;2.47;;;1.85;;
34573;SDS011;20809;49.594;8.734;2022-07-29T06:29:40;2.63;;;1.65;;
34573;SDS011;20809;49.594;8.734;2022-07-29T06:32:40;1.92;;;1.77;;
34573;SDS011;20809;49.594;8.734;2022-07-29T06:35:41;2.97;;;1.98;;
34573;SDS011;20809;49.594;8.734;2022-07-29T06:38:43;6.68;;;1.77;;
34573;SDS011;20809;49.594;8.734;2022-07-29T06:41:46;3.10;;;2.17;;
34573;SDS011;20809;49.594;8.734;2022-07-29T06:44:48;4.20;;;2.15;;
34573;SDS011;20809;49.594;8.734;2022-07-29T06:47:49;3.92;;;2.10;;
34573;SDS011;20809;49.594;8.734;2022-07-29T06:50:50;3.13;;;2.10;;
34573;SDS011;20809;49.594;8.734;2022-07-29T06:53:51;5.40;;;2.67;;
34573;SDS011;20809;49.594;8.734;2022-07-29T06:56:52;2.30;;;2.10;;
34573;SDS011;20809;49.594;8.734;2022-07-29T06:59:53;5.05;;;2.40;;
34573;SDS011;20809;49.594;8.734;2022-07-29T07:02:56;5.90;;;1.90;;
34573;SDS011;20809;49.594;8.734;2022-07-29T07:05:59;4.30;;;2.22;;
34573;SDS011;20809;49.594;8.734;2022-07-29T07:09:03;2.38;;;1.85;;
34573;SDS011;20809;49.594;8.734;2022-07-29T07:12:05;5.53;;;2.08;;
34573;SDS011;20809;49.594;8.734;2022-07-29T07:15:06;2.00;;;1.70;;
34573;SDS011;20809;49.594;8.734;2022-07-29T07:18:12;1.75;;;1.65;;
34573;SDS011;20809;49.594;8.734;2022-07-29T07:21:22;2.45;;;1.95;;
34573;SDS011;20809;49.594;8.734;2022-07-29T07:24:23;2.95;;;2.25;;
34573;SDS011;20809;49.594;8.734;2022-07-29T07:27:24;3.58;;;2.30;;
34573;SDS011;20809;49.594;8.734;2022-07-29T07:30:26;5.07;;;2.10;;
34573;SDS011;20809;49.594;8.734;2022-07-29T07:33:27;3.15;;;1.90;;
34573;SDS011;20809;49.594;8.734;2022-07-29T07:36:34;2.25;;;2.05;;
34573;SDS011;20809;49.594;8.734;2022-07-29T07:42:44;3.55;;;2.10;;
34573;SDS011;20809;49.594;8.734;2022-07-29T07:48:49;2.30;;;2.10;;
34573;SDS011;20809;49.594;8.734;2022-07-29T07:51:49;2.40;;;2.15;;
34573;SDS011;20809;49.594;8.734;2022-07-29T07:54:52;4.20;;;2.40;;
34573;SDS011;20809;49.594;8.734;2022-07-29T08:01:12;3.22;;;2.10;;
34573;SDS011;20809;49.594;8.734;2022-07-29T08:04:18;3.65;;;2.35;;
34573;SDS011;20809;49.594;8.734;2022-07-29T08:10:20;2.25;;;2.15;;
34573;SDS011;20809;49.594;8.734;2022-07-29T08:13:53;3.05;;;2.22;;
34573;SDS011;20809;49.594;8.734;2022-07-29T08:19:54;3.45;;;2.85;;
34573;SDS011;20809;49.594;8.734;2022-07-29T08:22:59;3.33;;;2.47;;
34573;SDS011;20809;49.594;8.734;2022-07-29T08:26:03;4.03;;;2.22;;
34573;SDS011;20809;49.594;8.734;2022-07-29T08:29:10;2.88;;;2.10;;
34573;SDS011;20809;49.594;8.734;2022-07-29T08:32:14;3.03;;;2.72;;
34573;SDS011;20809;49.594;8.734;2022-07-29T08:35:22;2.70;;;2.50;;
34573;SDS011;20809;49.594;8.734;2022-07-29T08:38:29;2.85;;;2.65;;
34573;SDS011;20809;49.594;8.734;2022-07-29T08:41:30;3.30;;;2.25;;
34573;SDS011;20809;49.594;8.734;2022-07-29T08:44:34;3.67;;;2.95;;
34573;SDS011;20809;49.594;8.734;2022-07-29T08:47:41;5.53;;;2.70;;
34573;SDS011;20809;49.594;8.734;2022-07-29T08:50:45;3.17;;;2.55;;
34573;SDS011;20809;49.594;8.734;2022-07-29T09:00:32;5.40;;;3.38;;
34573;SDS011;20809;49.594;8.734;2022-07-29T09:03:38;2.90;;;2.40;;
34573;SDS011;20809;49.594;8.734;2022-07-29T09:06:47;4.60;;;3.30;;
34573;SDS011;20809;49.594;8.734;2022-07-29T09:09:51;3.65;;;2.95;;
34573;SDS011;20809;49.594;8.734;2022-07-29T09:12:55;5.70;;;3.05;;
34573;SDS011;20809;49.594;8.734;2022-07-29T09:15:58;3.03;;;2.83;;
34573;SDS011;20809;49.594;8.734;2022-07-29T09:19:10;5.82;;;3.00;;
34573;SDS011;20809;49.594;8.734;2022-07-29T09:22:30;3.13;;;2.90;;
34573;SDS011;20809;49.594;8.734;2022-07-29T09:25:38;3.55;;;3.25;;
34573;SDS011;20809;49.594;8.734;2022-07-29T09:28:46;3.53;;;2.88;;
34573;SDS011;20809;49.594;8.734;2022-07-29T09:31:51;3.67;;;3.45;;
34573;SDS011;20809;49.594;8.734;2022-07-29T09:38:56;5.38;;;4.00;;
34573;SDS011;20809;49.594;8.734;2022-07-29T09:42:01;3.00;;;2.80;;
34573;SDS011;20809;49.594;8.734;2022-07-29T09:45:29;6.15;;;3.20;;
34573;SDS011;20809;49.594;8.734;2022-07-29T09:48:41;3.30;;;3.03;;
34573;SDS011;20809;49.594;8.734;2022-07-29T09:52:08;3.70;;;3.38;;
34573;SDS011;20809;49.594;8.734;2022-07-29T09:55:20;5.85;;;3.22;;
34573;SDS011;20809;49.594;8.734;2022-07-29T09:58:21;3.22;;;2.95;;
34573;SDS011;20809;49.594;8.734;2022-07-29T10:01:29;3.97;;;3.30;;
34573;SDS011;20809;49.594;8.734;2022-07-29T10:04:51;3.20;;;3.00;;
34573;SDS011;20809;49.594;8.734;2022-07-29T10:17:32;5.05;;;3.38;;
34573;SDS011;20809;49.594;8.734;2022-07-29T10:20:39;3.60;;;3.40;;
34573;SDS011;20809;49.594;8.734;2022-07-29T10:23:50;3.50;;;3.25;;
34573;SDS011;20809;49.594;8.734;2022-07-29T10:27:13;6.00;;;4.57;;
34573;SDS011;20809;49.594;8.734;2022-07-29T10:30:15;8.65;;;3.90;;
34573;SDS011;20809;49.594;8.734;2022-07-29T10:33:36;5.07;;;3.42;;
34573;SDS011;20809;49.594;8.734;2022-07-29T10:44:45;3.95;;;3.33;;
34573;SDS011;20809;49.594;8.734;2022-07-29T10:48:05;4.80;;;3.47;;
34573;SDS011;20809;49.594;8.734;2022-07-29T10:55:36;4.20;;;3.90;;
34573;SDS011;20809;49.594;8.734;2022-07-29T11:05:54;3.70;;;3.40;;
34573;SDS011;20809;49.594;8.734;2022-07-29T11:09:36;3.90;;;3.42;;
34573;SDS011;20809;49.594;8.734;2022-07-29T11:16:10;4.00;;;3.60;;
34573;SDS011;20809;49.594;8.734;2022-07-29T11:19:22;4.63;;;4.05;;
34573;SDS011;20809;49.594;8.734;2022-07-29T11:22:35;7.43;;;5.15;;
34573;SDS011;20809;49.594;8.734;2022-07-29T11:25:45;4.53;;;4.07;;
34573;SDS011;20809;49.594;8.734;2022-07-29T11:32:23;5.65;;;4.13;;
34573;SDS011;20809;49.594;8.734;2022-07-29T11:35:25;4.93;;;3.83;;
34573;SDS011;20809;49.594;8.734;2022-07-29T11:38:29;5.25;;;3.67;;
34573;SDS011;20809;49.594;8.734;2022-07-29T11:45:26;4.60;;;4.20;;
34573;SDS011;20809;49.594;8.734;2022-07-29T11:49:26;5.15;;;3.90;;
34573;SDS011;20809;49.594;8.734;2022-07-29T11:52:44;4.80;;;4.38;;
34573;SDS011;20809;49.594;8.734;2022-07-29T11:55:54;5.32;;;3.90;;
34573;SDS011;20809;49.594;8.734;2022-07-29T11:59:07;7.88;;;4.22;;
34573;SDS011;20809;49.594;8.734;2022-07-29T12:02:21;4.68;;;4.28;;
34573;SDS011;20809;49.594;8.734;2022-07-29T12:05:44;10.45;;;4.43;;
34573;SDS011;20809;49.594;8.734;2022-07-29T12:08:45;8.63;;;4.53;;
34573;SDS011;20809;49.594;8.734;2022-07-29T12:11:47;6.20;;;4.82;;
34573;SDS011;20809;49.594;8.734;2022-07-29T12:15:09;5.10;;;4.60;;
34573;SDS011;20809;49.594;8.734;2022-07-29T12:18:16;7.38;;;4.45;;
34573;SDS011;20809;49.594;8.734;2022-07-29T12:21:18;4.82;;;3.75;;
34573;SDS011;20809;49.594;8.734;2022-07-29T12:24:24;5.07;;;4.25;;
34573;SDS011;20809;49.594;8.734;2022-07-29T12:27:25;3.92;;;3.63;;
34573;SDS011;20809;49.594;8.734;2022-07-29T12:30:34;5.10;;;3.63;;
34573;SDS011;20809;49.594;8.734;2022-07-29T12:34:01;4.50;;;4.03;;
34573;SDS011;20809;49.594;8.734;2022-07-29T12:37:02;6.75;;;3.97;;
34573;SDS011;20809;49.594;8.734;2022-07-29T12:40:23;5.10;;;4.30;;
34573;SDS011;20809;49.594;8.734;2022-07-29T12:43:30;5.43;;;4.07;;
34573;SDS011;20809;49.594;8.734;2022-07-29T12:46:31;3.70;;;3.22;;
34573;SDS011;20809;49.594;8.734;2022-07-29T12:49:39;3.60;;;3.30;;
34573;SDS011;20809;49.594;8.734;2022-07-29T12:53:12;4.07;;;3.78;;
34573;SDS011;20809;49.594;8.734;2022-07-29T12:56:16;5.55;;;3.97;;
34573;SDS011;20809;49.594;8.734;2022-07-29T12:59:27;6.97;;;3.53;;
34573;SDS011;20809;49.594;8.734;2022-07-29T13:02:34;3.95;;;3.55;;
34573;SDS011;20809;49.594;8.734;2022-07-29T13:05:44;4.53;;;4.00;;
34573;SDS011;20809;49.594;8.734;2022-07-29T13:08:58;5.28;;;4.20;;
34573;SDS011;20809;49.594;8.734;2022-07-29T13:12:06;4.53;;;4.13;;
34573;SDS011;20809;49.594;8.734;2022-07-29T13:15:16;7.32;;;3.80;;
34573;SDS011;20809;49.594;8.734;2022-07-29T13:18:34;5.65;;;3.60;;
34573;SDS011;20809;49.594;8.734;2022-07-29T13:21:46;9.27;;;4.90;;
34573;SDS011;20809;49.594;8.734;2022-07-29T13:24:54;3.65;;;3.25;;
34573;SDS011;20809;49.594;8.734;2022-07-29T13:28:43;4.18;;;3.75;;
34573;SDS011;20809;49.594;8.734;2022-07-29T13:35:03;3.88;;;3.45;;
34573;SDS011;20809;49.594;8.734;2022-07-29T13:38:14;6.97;;;3.47;;
34573;SDS011;20809;49.594;8.734;2022-07-29T13:41:18;6.85;;;3.95;;
34573;SDS011;20809;49.594;8.734;2022-07-29T13:44:19;5.32;;;4.05;;
34573;SDS011;20809;49.594;8.734;2022-07-29T13:47:25;3.92;;;3.60;;
34573;SDS011;20809;49.594;8.734;2022-07-29T13:56:33;3.90;;;3.60;;
34573;SDS011;20809;49.594;8.734;2022-07-29T13:59:34;5.53;;;3.97;;
34573;SDS011;20809;49.594;8.734;2022-07-29T14:02:35;4.97;;;3.65;;
34573;SDS011;20809;49.594;8.734;2022-07-29T14:05:37;4.38;;;3.38;;
34573;SDS011;20809;49.594;8.734;2022-07-29T14:08:41;4.47;;;2.78;;
34573;SDS011;20809;49.594;8.734;2022-07-29T14:11:45;4.93;;;2.92;;
34573;SDS011;20809;49.594;8.734;2022-07-29T14:14:51;4.40;;;3.20;;
34573;SDS011;20809;49.594;8.734;2022-07-29T14:18:03;2.75;;;2.55;;
34573;SDS011;20809;49.594;8.734;2022-07-29T14:21:04;2.95;;;2.67;;
34573;SDS011;20809;49.594;8.734;2022-07-29T14:24:08;3.55;;;2.63;;
34573;SDS011;20809;49.594;8.734;2022-07-29T14:27:09;4.00;;;2.65;;
34573;SDS011;20809;49.594;8.734;2022-07-29T14:30:10;9.38;;;3.30;;
34573;SDS011;20809;49.594;8.734;2022-07-29T14:33:29;5.60;;;3.25;;
34573;SDS011;20809;49.594;8.734;2022-07-29T14:36:32;4.18;;;3.13;;
34573;SDS011;20809;49.594;8.734;2022-07-29T14:39:36;4.60;;;4.15;;
34573;SDS011;20809;49.594;8.734;2022-07-29T14:42:39;3.40;;;3.20;;
34573;SDS011;20809;49.594;8.734;2022-07-29T14:45:56;3.47;;;3.10;;
34573;SDS011;20809;49.594;8.734;2022-07-29T14:57:59;8.48;;;4.60;;
34573;SDS011;20809;49.594;8.734;2022-07-29T15:09:32;3.47;;;3.17;;
34573;SDS011;20809;49.594;8.734;2022-07-29T15:45:11;4.35;;;3.22;;
34573;SDS011;20809;49.594;8.734;2022-07-29T15:48:17;4.95;;;2.97;;
34573;SDS011;20809;49.594;8.734;2022-07-29T15:51:33;7.28;;;2.90;;
34573;SDS011;20809;49.594;8.734;2022-07-29T15:58:14;3.05;;;2.75;;
34573;SDS011;20809;49.594;8.734;2022-07-29T16:01:24;4.97;;;2.33;;
34573;SDS011;20809;49.594;8.734;2022-07-29T16:04:51;4.40;;;2.50;;
34573;SDS011;20809;49.594;8.734;2022-07-29T16:07:55;3.13;;;2.42;;
34573;SDS011;20809;49.594;8.734;2022-07-29T16:11:04;6.55;;;3.78;;
34573;SDS011;20809;49.594;8.734;2022-07-29T16:17:28;5.65;;;4.25;;
34573;SDS011;20809;49.594;8.734;2022-07-29T16:20:29;6.20;;;4.60;;
34573;SDS011;20809;49.594;8.734;2022-07-29T16:23:29;5.28;;;4.10;;
34573;SDS011;20809;49.594;8.734;2022-07-29T16:26:31;4.22;;;3.85;;
34573;SDS011;20809;49.594;8.734;2022-07-29T16:29:33;6.20;;;3.55;;
34573;SDS011;20809;49.594;8.734;2022-07-29T16:32:35;4.82;;;3.80;;
34573;SDS011;20809;49.594;8.734;2022-07-29T16:35:39;7.68;;;4.82;;
34573;SDS011;20809;49.594;8.734;2022-07-29T16:38:40;5.35;;;4.63;;
34573;SDS011;20809;49.594;8.734;2022-07-29T16:41:44;6.20;;;4.53;;
34573;SDS011;20809;49.594;8.734;2022-07-29T16:44:47;8.80;;;5.40;;
34573;SDS011;20809;49.594;8.734;2022-07-29T16:51:25;8.13;;;6.60;;
34573;SDS011;20809;49.594;8.734;2022-07-29T16:54:29;10.05;;;5.95;;
34573;SDS011;20809;49.594;8.734;2022-07-29T16:57:38;6.50;;;5.53;;
34573;SDS011;20809;49.594;8.734;2022-07-29T17:00:44;9.73;;;6.07;;
34573;SDS011;20809;49.594;8.734;2022-07-29T17:03:59;11.45;;;7.53;;
34573;SDS011;20809;49.594;8.734;2022-07-29T17:16:39;8.68;;;6.03;;
34573;SDS011;20809;49.594;8.734;2022-07-29T17:19:40;6.60;;;5.93;;
34573;SDS011;20809;49.594;8.734;2022-07-29T17:22:41;6.80;;;6.10;;
34573;SDS011;20809;49.594;8.734;2022-07-29T17:25:42;9.75;;;5.47;;
34573;SDS011;20809;49.594;8.734;2022-07-29T17:28:46;9.10;;;6.00;;
34573;SDS011;20809;49.594;8.734;2022-07-29T17:31:51;10.57;;;5.90;;
34573;SDS011;20809;49.594;8.734;2022-07-29T17:34:52;9.75;;;6.60;;
34573;SDS011;20809;49.594;8.734;2022-07-29T17:40:57;5.47;;;4.95;;
34573;SDS011;20809;49.594;8.734;2022-07-29T17:43:58;5.97;;;4.85;;
34573;SDS011;20809;49.594;8.734;2022-07-29T17:46:59;7.03;;;5.18;;
34573;SDS011;20809;49.594;8.734;2022-07-29T17:50:00;6.32;;;5.15;;
34573;SDS011;20809;49.594;8.734;2022-07-29T17:53:02;6.80;;;5.35;;
34573;SDS011;20809;49.594;8.734;2022-07-29T17:56:03;5.13;;;4.63;;
34573;SDS011;20809;49.594;8.734;2022-07-29T17:59:04;7.28;;;5.78;;
34573;SDS011;20809;49.594;8.734;2022-07-29T18:02:07;5.88;;;4.60;;
34573;SDS011;20809;49.594;8.734;2022-07-29T18:08:09;5.40;;;4.80;;
34573;SDS011;20809;49.594;8.734;2022-07-29T18:11:10;7.25;;;5.85;;
34573;SDS011;20809;49.594;8.734;2022-07-29T18:14:10;5.50;;;4.80;;
34573;SDS011;20809;49.594;8.734;2022-07-29T18:17:12;6.97;;;5.30;;
34573;SDS011;20809;49.594;8.734;2022-07-29T18:23:48;5.50;;;5.00;;
34573;SDS011;20809;49.594;8.734;2022-07-29T18:26:49;6.53;;;5.50;;
34573;SDS011;20809;49.594;8.734;2022-07-29T18:29:51;5.45;;;4.80;;
34573;SDS011;20809;49.594;8.734;2022-07-29T18:32:55;7.68;;;4.82;;
34573;SDS011;20809;49.594;8.734;2022-07-29T18:35:56;5.13;;;4.70;;
34573;SDS011;20809;49.594;8.734;2022-07-29T18:38:56;5.68;;;4.43;;
34573;SDS011;20809;49.594;8.734;2022-07-29T18:41:57;4.78;;;4.43;;
34573;SDS011;20809;49.594;8.734;2022-07-29T18:45:01;4.82;;;4.32;;
34573;SDS011;20809;49.594;8.734;2022-07-29T18:48:02;5.03;;;4.63;;
34573;SDS011;20809;49.594;8.734;2022-07-29T18:51:03;6.22;;;4.68;;
34573;SDS011;20809;49.594;8.734;2022-07-29T18:54:04;7.10;;;5.50;;
34573;SDS011;20809;49.594;8.734;2022-07-29T18:57:05;7.07;;;6.38;;
34573;SDS011;20809;49.594;8.734;2022-07-29T19:00:06;7.05;;;5.95;;
34573;SDS011;20809;49.594;8.734;2022-07-29T19:03:07;7.00;;;5.90;;
34573;SDS011;20809;49.594;8.734;2022-07-29T19:06:08;7.07;;;5.57;;
34573;SDS011;20809;49.594;8.734;2022-07-29T19:09:09;8.82;;;5.55;;
34573;SDS011;20809;49.594;8.734;2022-07-29T19:12:11;5.50;;;5.00;;
34573;SDS011;20809;49.594;8.734;2022-07-29T19:15:11;5.28;;;4.88;;
34573;SDS011;20809;49.594;8.734;2022-07-29T19:18:12;6.30;;;5.72;;
34573;SDS011;20809;49.594;8.734;2022-07-29T19:21:13;6.82;;;5.70;;
34573;SDS011;20809;49.594;8.734;2022-07-29T19:24:14;8.18;;;5.75;;
34573;SDS011;20809;49.594;8.734;2022-07-29T19:27:15;5.40;;;4.90;;
34573;SDS011;20809;49.594;8.734;2022-07-29T19:30:16;6.07;;;5.10;;
34573;SDS011;20809;49.594;8.734;2022-07-29T19:33:17;5.93;;;5.38;;
34573;SDS011;20809;49.594;8.734;2022-07-29T19:36:18;5.63;;;4.97;;
34573;SDS011;20809;49.594;8.734;2022-07-29T19:39:19;8.77;;;5.82;;
34573;SDS011;20809;49.594;8.734;2022-07-29T19:42:20;6.13;;;5.63;;
34573;SDS011;20809;49.594;8.734;2022-07-29T19:45:21;6.60;;;6.00;;
34573;SDS011;20809;49.594;8.734;2022-07-29T19:48:23;7.95;;;5.97;;
34573;SDS011;20809;49.594;8.734;2022-07-29T19:51:24;6.00;;;5.45;;
34573;SDS011;20809;49.594;8.734;2022-07-29T19:54:25;6.60;;;5.65;;
34573;SDS011;20809;49.594;8.734;2022-07-29T19:57:26;6.50;;;5.90;;
34573;SDS011;20809;49.594;8.734;2022-07-29T20:00:27;6.57;;;6.03;;
34573;SDS011;20809;49.594;8.734;2022-07-29T20:03:28;6.25;;;5.65;;
34573;SDS011;20809;49.594;8.734;2022-07-29T20:06:29;9.75;;;7.32;;
34573;SDS011;20809;49.594;8.734;2022-07-29T20:09:30;16.63;;;11.13;;
34573;SDS011;20809;49.594;8.734;2022-07-29T20:12:31;8.40;;;5.65;;
34573;SDS011;20809;49.594;8.734;2022-07-29T20:15:32;4.93;;;4.53;;
34573;SDS011;20809;49.594;8.734;2022-07-29T20:18:32;5.43;;;4.93;;
34573;SDS011;20809;49.594;8.734;2022-07-29T20:21:34;6.30;;;5.13;;
34573;SDS011;20809;49.594;8.734;2022-07-29T20:27:39;5.40;;;5.00;;
34573;SDS011;20809;49.594;8.734;2022-07-29T20:30:39;6.03;;;4.93;;
34573;SDS011;20809;49.594;8.734;2022-07-29T20:33:40;5.63;;;4.95;;
34573;SDS011;20809;49.594;8.734;2022-07-29T20:36:41;5.10;;;4.60;;
34573;SDS011;20809;49.594;8.734;2022-07-29T20:39:43;5.20;;;4.63;;
34573;SDS011;20809;49.594;8.734;2022-07-29T20:42:46;5.47;;;4.68;;
34573;SDS011;20809;49.594;8.734;2022-07-29T20:45:47;5.20;;;4.72;;
34573;SDS011;20809;49.594;8.734;2022-07-29T20:48:48;5.68;;;5.10;;
34573;SDS011;20809;49.594;8.734;2022-07-29T20:51:49;5.72;;;4.97;;
34573;SDS011;20809;49.594;8.734;2022-07-29T20:54:49;6.10;;;5.60;;
34573;SDS011;20809;49.594;8.734;2022-07-29T20:57:50;5.95;;;5.45;;
34573;SDS011;20809;49.594;8.734;2022-07-29T21:00:51;5.85;;;4.80;;
34573;SDS011;20809;49.594;8.734;2022-07-29T21:03:52;6.00;;;5.13;;
34573;SDS011;20809;49.594;8.734;2022-07-29T21:06:52;7.55;;;5.40;;
34573;SDS011;20809;49.594;8.734;2022-07-29T21:09:53;5.85;;;5.35;;
34573;SDS011;20809;49.594;8.734;2022-07-29T21:12:54;5.38;;;4.97;;
34573;SDS011;20809;49.594;8.734;2022-07-29T21:16:21;6.13;;;5.55;;
34573;SDS011;20809;49.594;8.734;2022-07-29T21:19:24;7.15;;;6.45;;
34573;SDS011;20809;49.594;8.734;2022-07-29T21:22:25;7.88;;;7.07;;
34573;SDS011;20809;49.594;8.734;2022-07-29T21:25:25;9.55;;;8.60;;
34573;SDS011;20809;49.594;8.734;2022-07-29T21:28:26;15.98;;;13.52;;
34573;SDS011;20809;49.594;8.734;2022-07-29T21:31:29;16.42;;;11.77;;
34573;SDS011;20809;49.594;8.734;2022-07-29T21:34:30;12.05;;;10.80;;
34573;SDS011;20809;49.594;8.734;2022-07-29T21:37:31;21.38;;;13.90;;
34573;SDS011;20809;49.594;8.734;2022-07-29T21:40:32;19.25;;;14.95;;
34573;SDS011;20809;49.594;8.734;2022-07-29T21:43:32;17.15;;;13.52;;
34573;SDS011;20809;49.594;8.734;2022-07-29T21:46:33;16.63;;;13.40;;
34573;SDS011;20809;49.594;8.734;2022-07-29T21:49:35;12.63;;;9.93;;